createdAt,value
2018-08-30T00:00:45.195Z,1017.54
2018-08-30T00:01:45.446Z,1017.54
2018-08-30T00:02:45.152Z,1017.55
2018-08-30T00:03:45.486Z,1017.55
2018-08-30T00:04:45.187Z,1017.56
2018-08-30T00:05:45.258Z,1017.62
2018-08-30T00:06:45.245Z,1017.59
2018-08-30T00:07:45.231Z,1017.6
2018-08-30T00:08:45.229Z,1017.56
2018-08-30T00:09:45.521Z,1017.61
2018-08-30T00:10:45.168Z,1017.59
2018-08-30T00:11:45.258Z,1017.55
2018-08-30T00:12:45.330Z,1017.59
2018-08-30T00:13:45.237Z,1017.59
2018-08-30T00:14:45.464Z,1017.59
2018-08-30T00:15:45.987Z,1017.61
2018-08-30T00:16:45.388Z,1017.62
2018-08-30T00:17:45.878Z,1017.62
2018-08-30T00:18:45.298Z,1017.65
2018-08-30T00:19:46.111Z,1017.64
2018-08-30T00:20:45.232Z,1017.69
2018-08-30T00:21:45.283Z,1017.69
2018-08-30T00:22:45.300Z,1017.67
2018-08-30T00:23:45.303Z,1017.66
2018-08-30T00:24:45.258Z,1017.69
2018-08-30T00:25:46.091Z,1017.68
2018-08-30T00:26:45.242Z,1017.7
2018-08-30T00:27:45.176Z,1017.71
2018-08-30T00:28:45.328Z,1017.69
2018-08-30T00:29:45.653Z,1017.69
2018-08-30T00:30:45.225Z,1017.69
2018-08-30T00:31:45.221Z,1017.68
2018-08-30T00:32:45.765Z,1017.7
2018-08-30T00:33:45.368Z,1017.71
2018-08-30T00:34:45.304Z,1017.73
2018-08-30T00:35:45.246Z,1017.7
2018-08-30T00:36:45.510Z,1017.71
2018-08-30T00:37:45.266Z,1017.72
2018-08-30T00:38:45.226Z,1017.69
2018-08-30T00:39:45.324Z,1017.7
2018-08-30T00:40:45.274Z,1017.74
2018-08-30T00:41:45.203Z,1017.72
2018-08-30T00:42:45.283Z,1017.79
2018-08-30T00:43:46.060Z,1017.79
2018-08-30T00:44:45.496Z,1017.78
2018-08-30T00:45:45.253Z,1017.81
2018-08-30T00:46:45.382Z,1017.84
2018-08-30T00:47:45.233Z,1017.82
2018-08-30T00:48:45.253Z,1017.81
2018-08-30T00:49:45.374Z,1017.84
2018-08-30T00:50:45.274Z,1017.84
2018-08-30T00:51:45.220Z,1017.83
2018-08-30T00:52:45.398Z,1017.88
2018-08-30T00:53:45.244Z,1017.82
2018-08-30T00:54:45.690Z,1017.86
2018-08-30T00:55:45.316Z,1017.86
2018-08-30T00:56:45.310Z,1017.89
2018-08-30T00:57:45.273Z,1017.92
2018-08-30T00:58:45.229Z,1017.97
2018-08-30T00:59:45.308Z,1017.97
2018-08-30T01:00:45.279Z,1018.02
2018-08-30T01:01:45.374Z,1018
2018-08-30T01:02:45.228Z,1018
2018-08-30T01:03:45.269Z,1018.12
2018-08-30T01:04:45.251Z,1018.12
2018-08-30T01:05:45.285Z,1018.14
2018-08-30T01:06:45.259Z,1018.14
2018-08-30T01:07:45.239Z,1018.14
2018-08-30T01:08:45.303Z,1018.18
2018-08-30T01:09:45.341Z,1018.2
2018-08-30T01:10:45.244Z,1018.2
2018-08-30T01:11:45.286Z,1018.22
2018-08-30T01:12:45.292Z,1018.2
2018-08-30T01:13:45.259Z,1018.2
2018-08-30T01:14:45.356Z,1018.26
2018-08-30T01:15:45.376Z,1018.25
2018-08-30T01:16:45.280Z,1018.28
2018-08-30T01:17:45.642Z,1018.27
2018-08-30T01:18:45.258Z,1018.23
2018-08-30T01:19:45.357Z,1018.25
2018-08-30T01:20:45.559Z,1018.27
2018-08-30T01:21:45.389Z,1018.29
2018-08-30T01:22:45.255Z,1018.31
2018-08-30T01:23:45.718Z,1018.32
2018-08-30T01:24:45.331Z,1018.33
2018-08-30T01:25:45.319Z,1018.35
2018-08-30T01:26:45.271Z,1018.42
2018-08-30T01:27:45.300Z,1018.43
2018-08-30T01:28:45.263Z,1018.44
2018-08-30T01:29:45.528Z,1018.46
2018-08-30T01:30:45.303Z,1018.49
2018-08-30T01:31:45.291Z,1018.47
2018-08-30T01:32:45.266Z,1018.54
2018-08-30T01:33:45.471Z,1018.53
2018-08-30T01:34:45.407Z,1018.53
2018-08-30T01:35:45.281Z,1018.54
2018-08-30T01:36:45.371Z,1018.53
2018-08-30T01:37:45.356Z,1018.58
2018-08-30T01:38:45.279Z,1018.56
2018-08-30T01:39:45.449Z,1018.61
2018-08-30T01:40:45.400Z,1018.64
2018-08-30T01:41:45.429Z,1018.56
2018-08-30T01:42:45.286Z,1018.62
2018-08-30T01:43:45.344Z,1018.61
2018-08-30T01:44:45.394Z,1018.62
2018-08-30T01:45:45.357Z,1018.59
2018-08-30T01:46:45.309Z,1018.61
2018-08-30T01:47:45.406Z,1018.62
2018-08-30T01:48:45.295Z,1018.63
2018-08-30T01:49:45.896Z,1018.64
2018-08-30T01:50:45.371Z,1018.7
2018-08-30T01:51:45.495Z,1018.69
2018-08-30T01:52:45.365Z,1018.74
2018-08-30T01:53:45.545Z,1018.73
2018-08-30T01:54:45.333Z,1018.72
2018-08-30T01:55:45.823Z,1018.75
2018-08-30T01:56:45.320Z,1018.72
2018-08-30T01:57:45.599Z,1018.74
2018-08-30T01:58:45.657Z,1018.73
2018-08-30T01:59:45.310Z,1018.74
2018-08-30T02:00:45.361Z,1018.74
2018-08-30T02:01:45.444Z,1018.77
2018-08-30T02:02:45.349Z,1018.76
2018-08-30T02:03:45.699Z,1018.77
2018-08-30T02:04:45.461Z,1018.77
2018-08-30T02:05:45.513Z,1018.76
2018-08-30T02:06:45.458Z,1018.8
2018-08-30T02:07:45.611Z,1018.8
2018-08-30T02:08:45.369Z,1018.8
2018-08-30T02:09:45.515Z,1018.83
2018-08-30T02:10:45.826Z,1018.77
2018-08-30T02:11:45.436Z,1018.83
2018-08-30T02:12:45.438Z,1018.85
2018-08-30T02:13:45.307Z,1018.79
2018-08-30T02:14:45.375Z,1018.85
2018-08-30T02:15:45.340Z,1018.87
2018-08-30T02:16:45.479Z,1018.91
2018-08-30T02:17:45.411Z,1018.96
2018-08-30T02:18:45.333Z,1018.94
2018-08-30T02:19:45.625Z,1018.98
2018-08-30T02:20:45.453Z,1018.95
2018-08-30T02:21:45.346Z,1018.99
2018-08-30T02:22:45.353Z,1018.99
2018-08-30T02:23:45.434Z,1018.97
2018-08-30T02:24:45.351Z,1019.02
2018-08-30T02:25:45.364Z,1019.01
2018-08-30T02:26:45.368Z,1019
2018-08-30T02:27:45.582Z,1019
2018-08-30T02:28:45.340Z,1019.01
2018-08-30T02:29:45.364Z,1019.02
2018-08-30T02:30:45.455Z,1019.06
2018-08-30T02:31:45.389Z,1019.06
2018-08-30T02:32:45.432Z,1019.05
2018-08-30T02:33:45.338Z,1019.04
2018-08-30T02:34:45.379Z,1019.07
2018-08-30T02:35:45.611Z,1019.06
2018-08-30T02:36:45.461Z,1019.06
2018-08-30T02:37:45.845Z,1019.09
2018-08-30T02:38:45.350Z,1019.1
2018-08-30T02:39:45.388Z,1019.1
2018-08-30T02:40:45.399Z,1019.12
2018-08-30T02:41:45.353Z,1019.14
2018-08-30T02:42:45.596Z,1019.13
2018-08-30T02:43:45.427Z,1019.08
2018-08-30T02:44:45.480Z,1019.16
2018-08-30T02:45:45.552Z,1019.17
2018-08-30T02:46:45.350Z,1019.18
2018-08-30T02:47:45.536Z,1019.15
2018-08-30T02:48:45.392Z,1019.14
2018-08-30T02:49:45.469Z,1019.23
2018-08-30T02:50:45.377Z,1019.18
2018-08-30T02:51:45.649Z,1019.2
2018-08-30T02:52:45.419Z,1019.2
2018-08-30T02:53:45.920Z,1019.17
2018-08-30T02:54:45.397Z,1019.23
2018-08-30T02:55:45.419Z,1019.24
2018-08-30T02:56:45.638Z,1019.26
2018-08-30T02:57:45.482Z,1019.28
2018-08-30T02:58:45.510Z,1019.22
2018-08-30T02:59:45.392Z,1019.23
2018-08-30T03:00:45.413Z,1019.21
2018-08-30T03:01:45.384Z,1019.26
2018-08-30T03:02:45.455Z,1019.26
2018-08-30T03:03:45.448Z,1019.26
2018-08-30T03:04:45.437Z,1019.25
2018-08-30T03:05:45.445Z,1019.27
2018-08-30T03:06:45.555Z,1019.29
2018-08-30T03:07:45.385Z,1019.29
2018-08-30T03:08:45.616Z,1019.2
2018-08-30T03:09:45.731Z,1019.27
2018-08-30T03:10:45.740Z,1019.27
2018-08-30T03:11:45.382Z,1019.24
2018-08-30T03:12:45.677Z,1019.27
2018-08-30T03:13:45.587Z,1019.28
2018-08-30T03:14:45.956Z,1019.28
2018-08-30T03:15:45.655Z,1019.29
2018-08-30T03:16:45.677Z,1019.25
2018-08-30T03:17:45.386Z,1019.27
2018-08-30T03:18:45.403Z,1019.29
2018-08-30T03:19:45.726Z,1019.24
2018-08-30T03:20:45.462Z,1019.23
2018-08-30T03:21:45.418Z,1019.23
2018-08-30T03:22:45.606Z,1019.21
2018-08-30T03:23:45.567Z,1019.23
2018-08-30T03:24:45.496Z,1019.24
2018-08-30T03:25:45.434Z,1019.27
2018-08-30T03:26:45.433Z,1019.27
2018-08-30T03:27:45.432Z,1019.29
2018-08-30T03:28:45.399Z,1019.26
2018-08-30T03:29:45.412Z,1019.26
2018-08-30T03:30:45.717Z,1019.27
2018-08-30T03:31:45.513Z,1019.3
2018-08-30T03:32:45.500Z,1019.31
2018-08-30T03:33:45.482Z,1019.3
2018-08-30T03:34:45.440Z,1019.28
2018-08-30T03:35:45.422Z,1019.3
2018-08-30T03:36:45.459Z,1019.33
2018-08-30T03:37:45.580Z,1019.27
2018-08-30T03:38:45.448Z,1019.26
2018-08-30T03:39:45.428Z,1019.32
2018-08-30T03:40:45.446Z,1019.36
2018-08-30T03:41:46.363Z,1019.37
2018-08-30T03:42:45.461Z,1019.34
2018-08-30T03:43:45.473Z,1019.4
2018-08-30T03:44:45.460Z,1019.44
2018-08-30T03:45:45.423Z,1019.42
2018-08-30T03:46:45.470Z,1019.41
2018-08-30T03:47:45.437Z,1019.48
2018-08-30T03:48:45.467Z,1019.45
2018-08-30T03:49:45.453Z,1019.44
2018-08-30T03:50:45.448Z,1019.42
2018-08-30T03:51:45.461Z,1019.45
2018-08-30T03:52:45.483Z,1019.46
2018-08-30T03:53:45.446Z,1019.44
2018-08-30T03:54:45.464Z,1019.46
2018-08-30T03:55:45.502Z,1019.47
2018-08-30T03:56:45.457Z,1019.48
2018-08-30T03:57:45.483Z,1019.49
2018-08-30T03:58:45.637Z,1019.5
2018-08-30T03:59:45.465Z,1019.49
2018-08-30T04:00:45.444Z,1019.48
2018-08-30T04:01:45.469Z,1019.5
2018-08-30T04:02:45.513Z,1019.46
2018-08-30T04:03:45.511Z,1019.45
2018-08-30T04:04:45.633Z,1019.52
2018-08-30T04:05:45.625Z,1019.51
2018-08-30T04:06:45.515Z,1019.51
2018-08-30T04:07:45.648Z,1019.5
2018-08-30T04:08:45.488Z,1019.52
2018-08-30T04:09:45.579Z,1019.52
2018-08-30T04:10:45.667Z,1019.56
2018-08-30T04:11:45.480Z,1019.5
2018-08-30T04:12:45.501Z,1019.54
2018-08-30T04:13:45.498Z,1019.55
2018-08-30T04:14:45.531Z,1019.54
2018-08-30T04:15:45.621Z,1019.54
2018-08-30T04:16:45.549Z,1019.57
2018-08-30T04:17:45.504Z,1019.58
2018-08-30T04:18:45.600Z,1019.58
2018-08-30T04:19:45.708Z,1019.6
2018-08-30T04:20:45.502Z,1019.6
2018-08-30T04:21:45.826Z,1019.6
2018-08-30T04:22:45.630Z,1019.58
2018-08-30T04:23:45.522Z,1019.6
2018-08-30T04:24:45.502Z,1019.59
2018-08-30T04:25:45.508Z,1019.63
2018-08-30T04:26:45.565Z,1019.66
2018-08-30T04:27:45.547Z,1019.65
2018-08-30T04:28:45.484Z,1019.74
2018-08-30T04:29:45.531Z,1019.75
2018-08-30T04:30:45.656Z,1019.74
2018-08-30T04:31:45.628Z,1019.8
2018-08-30T04:32:45.512Z,1019.81
2018-08-30T04:33:45.640Z,1019.81
2018-08-30T04:34:45.486Z,1019.77
2018-08-30T04:35:45.826Z,1019.79
2018-08-30T04:36:45.519Z,1019.79
2018-08-30T04:37:45.516Z,1019.81
2018-08-30T04:38:45.637Z,1019.79
2018-08-30T04:39:45.498Z,1019.83
2018-08-30T04:40:45.665Z,1019.84
2018-08-30T04:41:45.528Z,1019.87
2018-08-30T04:42:45.583Z,1019.91
2018-08-30T04:43:46.189Z,1019.86
2018-08-30T04:44:45.531Z,1019.85
2018-08-30T04:45:45.650Z,1019.87
2018-08-30T04:46:45.608Z,1019.81
2018-08-30T04:47:45.513Z,1019.88
2018-08-30T04:48:45.594Z,1019.91
2018-08-30T04:49:45.825Z,1019.93
2018-08-30T04:50:45.596Z,1019.96
2018-08-30T04:51:45.706Z,1019.97
2018-08-30T04:52:45.680Z,1019.99
2018-08-30T04:53:45.695Z,1020.01
2018-08-30T04:54:45.882Z,1020.01
2018-08-30T04:55:45.610Z,1020.01
2018-08-30T04:56:46.487Z,1020.04
2018-08-30T04:57:45.772Z,1020.01
2018-08-30T04:58:45.681Z,1020.06
2018-08-30T04:59:45.786Z,1020.03
2018-08-30T05:00:45.543Z,1020.06
2018-08-30T05:01:45.756Z,1020.06
2018-08-30T05:02:45.538Z,1020.07
2018-08-30T05:03:45.537Z,1020.11
2018-08-30T05:04:45.563Z,1020.11
2018-08-30T05:05:45.528Z,1020.12
2018-08-30T05:06:45.600Z,1020.11
2018-08-30T05:07:45.538Z,1020.13
2018-08-30T05:08:45.589Z,1020.13
2018-08-30T05:09:45.527Z,1020.12
2018-08-30T05:10:45.513Z,1020.17
2018-08-30T05:11:45.589Z,1020.16
2018-08-30T05:12:45.559Z,1020.16
2018-08-30T05:13:45.527Z,1020.17
2018-08-30T05:14:45.568Z,1020.16
2018-08-30T05:15:45.592Z,1020.19
2018-08-30T05:16:45.551Z,1020.19
2018-08-30T05:17:45.592Z,1020.25
2018-08-30T05:18:45.526Z,1020.23
2018-08-30T05:19:45.602Z,1020.26
2018-08-30T05:20:45.552Z,1020.31
2018-08-30T05:21:45.549Z,1020.33
2018-08-30T05:22:45.722Z,1020.36
2018-08-30T05:23:45.639Z,1020.35
2018-08-30T05:24:45.552Z,1020.37
2018-08-30T05:25:45.663Z,1020.34
2018-08-30T05:26:45.871Z,1020.35
2018-08-30T05:27:45.568Z,1020.33
2018-08-30T05:28:45.578Z,1020.33
2018-08-30T05:29:45.806Z,1020.38
2018-08-30T05:30:46.000Z,1020.36
2018-08-30T05:31:45.634Z,1020.35
2018-08-30T05:32:45.570Z,1020.37
2018-08-30T05:33:46.228Z,1020.32
2018-08-30T05:34:45.750Z,1020.35
2018-08-30T05:35:46.011Z,1020.37
2018-08-30T05:36:45.565Z,1020.43
2018-08-30T05:37:46.110Z,1020.35
2018-08-30T05:38:45.762Z,1020.42
2018-08-30T05:39:46.075Z,1020.41
2018-08-30T05:40:45.658Z,1020.49
2018-08-30T05:41:45.561Z,1020.44
2018-08-30T05:42:45.569Z,1020.45
2018-08-30T05:43:45.581Z,1020.47
2018-08-30T05:44:45.738Z,1020.44
2018-08-30T05:45:46.031Z,1020.46
2018-08-30T05:46:45.651Z,1020.47
2018-08-30T05:47:45.729Z,1020.5
2018-08-30T05:48:45.619Z,1020.53
2018-08-30T05:49:45.673Z,1020.54
2018-08-30T05:50:46.066Z,1020.53
2018-08-30T05:51:45.839Z,1020.52
2018-08-30T05:52:45.637Z,1020.57
2018-08-30T05:53:45.790Z,1020.56
2018-08-30T05:54:45.584Z,1020.57
2018-08-30T05:55:45.874Z,1020.55
2018-08-30T05:56:46.136Z,1020.6
2018-08-30T05:57:45.716Z,1020.6
2018-08-30T05:58:45.831Z,1020.61
2018-08-30T05:59:45.695Z,1020.58
2018-08-30T06:00:45.579Z,1020.58
2018-08-30T06:01:45.706Z,1020.6
2018-08-30T06:02:45.601Z,1020.62
2018-08-30T06:03:45.666Z,1020.63
2018-08-30T06:04:46.036Z,1020.66
2018-08-30T06:05:45.751Z,1020.61
2018-08-30T06:06:45.617Z,1020.69
2018-08-30T06:07:45.669Z,1020.62
2018-08-30T06:08:45.968Z,1020.72
2018-08-30T06:09:45.616Z,1020.72
2018-08-30T06:10:45.946Z,1020.7
2018-08-30T06:11:45.620Z,1020.67
2018-08-30T06:12:45.935Z,1020.7
2018-08-30T06:13:45.769Z,1020.71
2018-08-30T06:14:46.108Z,1020.7
2018-08-30T06:15:45.682Z,1020.73
2018-08-30T06:16:45.612Z,1020.72
2018-08-30T06:17:45.622Z,1020.68
2018-08-30T06:18:45.676Z,1020.76
2018-08-30T06:19:45.688Z,1020.7
2018-08-30T06:20:45.698Z,1020.71
2018-08-30T06:21:45.936Z,1020.81
2018-08-30T06:22:45.654Z,1020.83
2018-08-30T06:23:45.795Z,1020.83
2018-08-30T06:24:45.631Z,1020.84
2018-08-30T06:25:45.633Z,1020.87
2018-08-30T06:26:45.862Z,1020.91
2018-08-30T06:27:45.640Z,1020.92
2018-08-30T06:28:45.672Z,1020.93
2018-08-30T06:29:45.654Z,1020.94
2018-08-30T06:30:45.652Z,1020.98
2018-08-30T06:31:45.666Z,1020.98
2018-08-30T06:32:45.764Z,1021.01
2018-08-30T06:33:45.677Z,1020.97
2018-08-30T06:34:46.025Z,1021
2018-08-30T06:35:45.665Z,1021.03
2018-08-30T06:36:45.658Z,1021
2018-08-30T06:37:45.660Z,1021.02
2018-08-30T06:38:46.010Z,1021.02
2018-08-30T06:39:45.654Z,1021.04
2018-08-30T06:40:45.664Z,1021.06
2018-08-30T06:41:45.640Z,1021.08
2018-08-30T06:42:45.699Z,1021.15
2018-08-30T06:43:45.672Z,1021.13
2018-08-30T06:44:45.685Z,1021.13
2018-08-30T06:45:46.727Z,1021.18
2018-08-30T06:46:45.672Z,1021.17
2018-08-30T06:47:45.740Z,1021.15
2018-08-30T06:48:45.689Z,1021.18
2018-08-30T06:49:45.660Z,1021.2
2018-08-30T06:50:45.917Z,1021.19
2018-08-30T06:51:45.702Z,1021.19
2018-08-30T06:52:45.763Z,1021.22
2018-08-30T06:53:45.975Z,1021.23
2018-08-30T06:54:45.673Z,1021.22
2018-08-30T06:55:45.984Z,1021.21
2018-08-30T06:56:45.681Z,1021.23
2018-08-30T06:57:46.207Z,1021.2
2018-08-30T06:58:45.674Z,1021.26
2018-08-30T06:59:45.656Z,1021.3
2018-08-30T07:00:45.705Z,1021.32
2018-08-30T07:01:45.749Z,1021.28
2018-08-30T07:02:45.934Z,1021.28
2018-08-30T07:03:45.721Z,1021.27
2018-08-30T07:04:46.504Z,1021.3
2018-08-30T07:05:45.695Z,1021.3
2018-08-30T07:06:45.963Z,1021.29
2018-08-30T07:07:45.782Z,1021.28
2018-08-30T07:08:45.695Z,1021.27
2018-08-30T07:09:45.713Z,1021.29
2018-08-30T07:10:45.796Z,1021.3
2018-08-30T07:11:45.735Z,1021.28
2018-08-30T07:12:45.694Z,1021.27
2018-08-30T07:13:45.726Z,1021.28
2018-08-30T07:14:46.074Z,1021.3
2018-08-30T07:15:46.078Z,1021.3
2018-08-30T07:16:45.710Z,1021.33
2018-08-30T07:17:45.716Z,1021.28
2018-08-30T07:18:46.048Z,1021.3
2018-08-30T07:19:46.044Z,1021.3
2018-08-30T07:20:45.754Z,1021.31
2018-08-30T07:21:45.769Z,1021.29
2018-08-30T07:22:45.958Z,1021.34
2018-08-30T07:23:45.777Z,1021.35
2018-08-30T07:24:45.714Z,1021.33
2018-08-30T07:25:45.939Z,1021.32
2018-08-30T07:26:45.737Z,1021.37
2018-08-30T07:27:46.301Z,1021.37
2018-08-30T07:28:45.805Z,1021.38
2018-08-30T07:29:45.994Z,1021.38
2018-08-30T07:30:45.922Z,1021.42
2018-08-30T07:31:45.749Z,1021.44
2018-08-30T07:32:45.918Z,1021.41
2018-08-30T07:33:45.773Z,1021.45
2018-08-30T07:34:46.222Z,1021.42
2018-08-30T07:35:45.736Z,1021.46
2018-08-30T07:36:45.837Z,1021.5
2018-08-30T07:37:46.060Z,1021.47
2018-08-30T07:38:45.718Z,1021.5
2018-08-30T07:39:45.721Z,1021.54
2018-08-30T07:40:45.760Z,1021.53
2018-08-30T07:41:45.742Z,1021.51
2018-08-30T07:42:45.735Z,1021.52
2018-08-30T07:43:45.841Z,1021.62
2018-08-30T07:44:45.729Z,1021.61
2018-08-30T07:45:45.754Z,1021.59
2018-08-30T07:46:45.777Z,1021.67
2018-08-30T07:47:45.748Z,1021.68
2018-08-30T07:48:45.759Z,1021.7
2018-08-30T07:49:45.731Z,1021.67
2018-08-30T07:50:45.830Z,1021.7
2018-08-30T07:51:45.775Z,1021.67
2018-08-30T07:52:45.938Z,1021.71
2018-08-30T07:53:45.776Z,1021.74
2018-08-30T07:54:45.871Z,1021.7
2018-08-30T07:55:45.858Z,1021.77
2018-08-30T07:56:45.731Z,1021.69
2018-08-30T07:57:45.735Z,1021.72
2018-08-30T07:58:45.751Z,1021.73
2018-08-30T07:59:45.726Z,1021.76
2018-08-30T08:00:45.733Z,1021.76
2018-08-30T08:01:45.924Z,1021.72
2018-08-30T08:02:46.131Z,1021.76
2018-08-30T08:03:45.804Z,1021.81
2018-08-30T08:04:45.737Z,1021.79
2018-08-30T08:05:45.869Z,1021.83
2018-08-30T08:06:46.079Z,1021.86
2018-08-30T08:07:45.802Z,1021.87
2018-08-30T08:08:45.758Z,1021.89
2018-08-30T08:09:45.772Z,1021.88
2018-08-30T08:10:45.765Z,1021.87
2018-08-30T08:11:45.979Z,1021.93
2018-08-30T08:12:46.081Z,1021.89
2018-08-30T08:13:46.332Z,1021.96
2018-08-30T08:14:46.026Z,1021.95
2018-08-30T08:15:45.773Z,1021.99
2018-08-30T08:16:45.779Z,1021.93
2018-08-30T08:17:46.363Z,1021.98
2018-08-30T08:18:45.794Z,1021.97
2018-08-30T08:19:45.887Z,1022
2018-08-30T08:20:45.878Z,1021.98
2018-08-30T08:21:45.932Z,1022.01
2018-08-30T08:22:45.773Z,1022.02
2018-08-30T08:23:45.780Z,1021.98
2018-08-30T08:24:46.026Z,1021.98
2018-08-30T08:25:45.932Z,1022.01
2018-08-30T08:26:45.792Z,1022.03
2018-08-30T08:27:45.876Z,1022.09
2018-08-30T08:28:46.419Z,1022.06
2018-08-30T08:29:45.785Z,1022.08
2018-08-30T08:30:45.951Z,1022.1
2018-08-30T08:31:45.892Z,1022.15
2018-08-30T08:32:45.980Z,1022.14
2018-08-30T08:33:46.043Z,1022.17
2018-08-30T08:34:45.913Z,1022.15
2018-08-30T08:35:45.959Z,1022.18
2018-08-30T08:36:45.986Z,1022.17
2018-08-30T08:37:45.976Z,1022.16
2018-08-30T08:38:46.184Z,1022.17
2018-08-30T08:39:45.835Z,1022.17
2018-08-30T08:40:45.948Z,1022.19
2018-08-30T08:41:45.848Z,1022.18
2018-08-30T08:42:46.135Z,1022.15
2018-08-30T08:43:45.840Z,1022.23
2018-08-30T08:44:45.993Z,1022.24
2018-08-30T08:45:46.058Z,1022.21
2018-08-30T08:46:45.954Z,1022.21
2018-08-30T08:47:46.259Z,1022.21
2018-08-30T08:48:45.854Z,1022.17
2018-08-30T08:49:45.949Z,1022.18
2018-08-30T08:50:45.798Z,1022.15
2018-08-30T08:51:45.941Z,1022.21
2018-08-30T08:52:45.980Z,1022.17
2018-08-30T08:53:46.832Z,1022.21
2018-08-30T08:54:45.998Z,1022.21
2018-08-30T08:55:45.954Z,1022.19
2018-08-30T08:56:45.805Z,1022.28
2018-08-30T08:57:46.130Z,1022.26
2018-08-30T08:58:46.063Z,1022.25
2018-08-30T08:59:45.825Z,1022.27
2018-08-30T09:00:45.949Z,1022.22
2018-08-30T09:01:45.965Z,1022.24
2018-08-30T09:02:46.287Z,1022.22
2018-08-30T09:03:46.247Z,1022.27
2018-08-30T09:04:45.857Z,1022.26
2018-08-30T09:05:45.932Z,1022.29
2018-08-30T09:06:45.826Z,1022.28
2018-08-30T09:07:46.557Z,1022.3
2018-08-30T09:08:45.923Z,1022.3
2018-08-30T09:09:45.920Z,1022.3
2018-08-30T09:10:45.832Z,1022.27
2018-08-30T09:11:45.890Z,1022.32
2018-08-30T09:12:45.911Z,1022.35
2018-08-30T09:13:45.939Z,1022.36
2018-08-30T09:14:45.874Z,1022.32
2018-08-30T09:15:45.837Z,1022.33
2018-08-30T09:16:45.898Z,1022.37
2018-08-30T09:17:45.879Z,1022.33
2018-08-30T09:18:45.926Z,1022.39
2018-08-30T09:19:45.881Z,1022.4
2018-08-30T09:20:45.931Z,1022.36
2018-08-30T09:21:45.934Z,1022.35
2018-08-30T09:22:45.914Z,1022.36
2018-08-30T09:23:45.907Z,1022.43
2018-08-30T09:24:46.092Z,1022.42
2018-08-30T09:25:45.896Z,1022.45
2018-08-30T09:26:46.598Z,1022.42
2018-08-30T09:27:46.104Z,1022.41
2018-08-30T09:28:45.852Z,1022.48
2018-08-30T09:29:45.885Z,1022.43
2018-08-30T09:30:45.945Z,1022.42
2018-08-30T09:31:45.947Z,1022.47
2018-08-30T09:32:46.076Z,1022.42
2018-08-30T09:33:46.311Z,1022.41
2018-08-30T09:34:45.982Z,1022.4
2018-08-30T09:35:45.992Z,1022.43
2018-08-30T09:36:45.861Z,1022.4
2018-08-30T09:37:46.036Z,1022.39
2018-08-30T09:38:46.006Z,1022.37
2018-08-30T09:39:46.280Z,1022.44
2018-08-30T09:40:46.198Z,1022.43
2018-08-30T09:41:45.929Z,1022.42
2018-08-30T09:42:46.000Z,1022.39
2018-08-30T09:43:46.004Z,1022.45
2018-08-30T09:44:46.153Z,1022.43
2018-08-30T09:45:46.130Z,1022.46
2018-08-30T09:46:45.992Z,1022.43
2018-08-30T09:47:46.145Z,1022.46
2018-08-30T09:48:46.146Z,1022.45
2018-08-30T09:49:46.440Z,1022.47
2018-08-30T09:50:45.876Z,1022.43
2018-08-30T09:51:46.093Z,1022.41
2018-08-30T09:52:46.050Z,1022.46
2018-08-30T09:53:45.930Z,1022.45
2018-08-30T09:54:46.020Z,1022.48
2018-08-30T09:55:46.177Z,1022.45
2018-08-30T09:56:46.214Z,1022.42
2018-08-30T09:57:46.516Z,1022.47
2018-08-30T09:58:46.013Z,1022.46
2018-08-30T09:59:47.818Z,1022.48
2018-08-30T10:00:46.284Z,1022.47
2018-08-30T10:01:46.008Z,1022.49
2018-08-30T10:02:46.028Z,1022.46
2018-08-30T10:03:46.035Z,1022.48
2018-08-30T10:04:46.381Z,1022.47
2018-08-30T10:05:46.279Z,1022.48
2018-08-30T10:06:46.657Z,1022.53
2018-08-30T10:07:48.625Z,1022.54
2018-08-30T10:08:45.898Z,1022.55
2018-08-30T10:09:46.044Z,1022.51
2018-08-30T10:10:46.312Z,1022.53
2018-08-30T10:11:46.212Z,1022.48
2018-08-30T10:12:46.050Z,1022.52
2018-08-30T10:13:45.946Z,1022.46
2018-08-30T10:14:45.961Z,1022.47
2018-08-30T10:15:46.162Z,1022.53
2018-08-30T10:16:45.887Z,1022.51
2018-08-30T10:17:45.898Z,1022.46
2018-08-30T10:18:45.936Z,1022.47
2018-08-30T10:19:45.928Z,1022.48
2018-08-30T10:20:46.173Z,1022.52
2018-08-30T10:21:46.210Z,1022.51
2018-08-30T10:22:46.068Z,1022.49
2018-08-30T10:23:45.920Z,1022.48
2018-08-30T10:24:46.001Z,1022.46
2018-08-30T10:25:45.999Z,1022.45
2018-08-30T10:26:46.010Z,1022.45
2018-08-30T10:27:45.913Z,1022.4
2018-08-30T10:28:45.941Z,1022.39
2018-08-30T10:29:45.940Z,1022.41
2018-08-30T10:30:45.926Z,1022.42
2018-08-30T10:31:45.940Z,1022.48
2018-08-30T10:32:45.959Z,1022.42
2018-08-30T10:33:45.932Z,1022.42
2018-08-30T10:34:45.927Z,1022.43
2018-08-30T10:35:45.924Z,1022.44
2018-08-30T10:36:45.950Z,1022.4
2018-08-30T10:37:45.999Z,1022.39
2018-08-30T10:38:45.942Z,1022.39
2018-08-30T10:39:45.957Z,1022.4
2018-08-30T10:40:45.942Z,1022.41
2018-08-30T10:41:46.042Z,1022.4
2018-08-30T10:42:46.046Z,1022.47
2018-08-30T10:43:45.983Z,1022.42
2018-08-30T10:44:46.026Z,1022.41
2018-08-30T10:45:47.204Z,1022.4
2018-08-30T10:46:46.276Z,1022.4
2018-08-30T10:47:46.271Z,1022.42
2018-08-30T10:48:46.162Z,1022.41
2018-08-30T10:49:46.249Z,1022.43
2018-08-30T10:50:46.140Z,1022.41
2018-08-30T10:51:46.245Z,1022.41
2018-08-30T10:52:46.211Z,1022.36
2018-08-30T10:53:46.098Z,1022.37
2018-08-30T10:54:46.009Z,1022.37
2018-08-30T10:55:46.270Z,1022.41
2018-08-30T10:56:45.968Z,1022.37
2018-08-30T10:57:46.112Z,1022.41
2018-08-30T10:58:46.256Z,1022.41
2018-08-30T10:59:46.128Z,1022.4
2018-08-30T11:00:45.989Z,1022.35
2018-08-30T11:01:46.139Z,1022.34
2018-08-30T11:02:46.094Z,1022.38
2018-08-30T11:03:46.668Z,1022.39
2018-08-30T11:04:45.979Z,1022.36
2018-08-30T11:05:46.030Z,1022.34
2018-08-30T11:06:45.992Z,1022.34
2018-08-30T11:07:46.198Z,1022.34
2018-08-30T11:08:46.107Z,1022.33
2018-08-30T11:09:45.963Z,1022.31
2018-08-30T11:10:46.113Z,1022.35
2018-08-30T11:11:46.083Z,1022.31
2018-08-30T11:12:46.104Z,1022.35
2018-08-30T11:13:46.336Z,1022.34
2018-08-30T11:14:45.971Z,1022.3
2018-08-30T11:15:46.092Z,1022.36
2018-08-30T11:16:46.052Z,1022.31
2018-08-30T11:17:46.209Z,1022.27
2018-08-30T11:18:46.466Z,1022.27
2018-08-30T11:19:46.051Z,1022.3
2018-08-30T11:20:45.974Z,1022.34
2018-08-30T11:21:45.994Z,1022.32
2018-08-30T11:22:46.063Z,1022.28
2018-08-30T11:23:46.100Z,1022.26
2018-08-30T11:24:46.001Z,1022.29
2018-08-30T11:25:46.486Z,1022.24
2018-08-30T11:26:46.264Z,1022.25
2018-08-30T11:27:46.097Z,1022.23
2018-08-30T11:28:46.167Z,1022.25
2018-08-30T11:29:46.225Z,1022.27
2018-08-30T11:30:46.794Z,1022.22
2018-08-30T11:31:46.085Z,1022.26
2018-08-30T11:32:46.007Z,1022.25
2018-08-30T11:33:46.663Z,1022.21
2018-08-30T11:34:46.694Z,1022.23
2018-08-30T11:35:46.005Z,1022.23
2018-08-30T11:36:46.110Z,1022.2
2018-08-30T11:37:46.412Z,1022.2
2018-08-30T11:38:46.108Z,1022.26
2018-08-30T11:39:46.411Z,1022.23
2018-08-30T11:40:46.249Z,1022.25
2018-08-30T11:41:47.737Z,1022.22
2018-08-30T11:42:45.999Z,1022.25
2018-08-30T11:43:46.237Z,1022.21
2018-08-30T11:44:46.050Z,1022.13
2018-08-30T11:45:46.041Z,1022.16
2018-08-30T11:46:46.044Z,1022.16
2018-08-30T11:47:46.080Z,1022.17
2018-08-30T11:48:46.187Z,1022.14
2018-08-30T11:49:46.045Z,1022.12
2018-08-30T11:50:46.145Z,1022.13
2018-08-30T11:51:46.080Z,1022.16
2018-08-30T11:52:46.329Z,1022.14
2018-08-30T11:53:46.097Z,1022.14
2018-08-30T11:54:46.225Z,1022.14
2018-08-30T11:56:46.100Z,1022.04
2018-08-30T11:57:46.192Z,1022.11
2018-08-30T11:58:46.010Z,1022.1
2018-08-30T11:59:46.048Z,1022.1
2018-08-30T12:00:46.213Z,1022.1
2018-08-30T12:01:46.070Z,1022.07
2018-08-30T12:02:46.091Z,1022.1
2018-08-30T12:03:46.177Z,1022.05
2018-08-30T12:04:46.229Z,1022.15
2018-08-30T12:05:46.065Z,1022.17
2018-08-30T12:06:46.420Z,1022.13
2018-08-30T12:07:46.075Z,1022.16
2018-08-30T12:08:46.213Z,1022.19
2018-08-30T12:09:46.066Z,1022.17